createdAt,value
2018-09-01T00:02:31.611Z,13.90
2018-09-01T00:07:35.009Z,13.80
2018-09-01T00:12:38.624Z,13.90
2018-09-01T00:17:42.173Z,13.90
2018-09-01T00:22:45.623Z,13.90
2018-09-01T00:27:49.119Z,13.90
2018-09-01T00:32:52.574Z,13.90
2018-09-01T00:38:01.213Z,14.00
2018-09-01T00:43:04.749Z,14.00
2018-09-01T00:48:08.505Z,14.00
2018-09-01T00:53:11.857Z,14.00
2018-09-01T00:58:15.437Z,13.90
2018-09-01T01:03:18.877Z,13.90
2018-09-01T01:08:22.336Z,13.90
2018-09-01T01:13:25.892Z,13.80
2018-09-01T01:18:29.369Z,13.90
2018-09-01T01:28:35.903Z,13.90
2018-09-01T01:33:39.391Z,13.80
2018-09-01T01:38:42.818Z,13.80
2018-09-01T01:43:46.112Z,13.80
2018-09-01T01:48:49.620Z,13.70
2018-09-01T01:53:53.151Z,13.70
2018-09-01T01:58:57.933Z,13.80
2018-09-01T02:04:01.674Z,13.80
2018-09-01T02:09:06.584Z,13.80
2018-09-01T02:14:10.306Z,13.70
2018-09-01T02:19:14.056Z,13.80
2018-09-01T02:24:17.399Z,13.70
2018-09-01T02:29:20.774Z,13.70
2018-09-01T02:34:24.333Z,13.70
2018-09-01T02:39:27.757Z,13.70
2018-09-01T02:44:31.136Z,13.70
2018-09-01T02:49:34.664Z,13.70
2018-09-01T02:54:38.071Z,13.70
2018-09-01T02:59:41.438Z,13.70
2018-09-01T03:04:45.605Z,13.60
2018-09-01T03:09:48.957Z,13.60
2018-09-01T03:14:52.690Z,13.60
2018-09-01T03:19:56.119Z,13.60
2018-09-01T03:24:59.585Z,13.50
2018-09-01T03:30:02.952Z,13.50
2018-09-01T03:35:06.483Z,13.50
2018-09-01T03:40:09.933Z,13.50
2018-09-01T03:45:13.333Z,13.50
2018-09-01T03:50:16.818Z,13.50
2018-09-01T03:55:20.187Z,13.50
2018-09-01T04:00:26.352Z,13.50
2018-09-01T04:05:29.862Z,13.40
2018-09-01T04:10:33.233Z,13.50
2018-09-01T04:15:36.652Z,13.40
2018-09-01T04:20:40.054Z,13.40
2018-09-01T04:25:43.499Z,13.40
2018-09-01T04:30:46.941Z,13.40
2018-09-01T04:35:50.375Z,13.40
2018-09-01T04:40:53.746Z,13.40
2018-09-01T04:45:57.274Z,13.40
2018-09-01T04:51:00.661Z,13.30
2018-09-01T04:56:04.145Z,13.30
2018-09-01T05:01:07.743Z,13.20
2018-09-01T05:06:11.207Z,13.20
2018-09-01T05:11:14.696Z,13.20
2018-09-01T05:16:18.290Z,13.10
2018-09-01T05:21:21.797Z,13.10
2018-09-01T05:26:25.145Z,13.10
2018-09-01T05:31:28.485Z,13.00
2018-09-01T05:36:32.077Z,13.10
2018-09-01T05:41:35.440Z,13.00
2018-09-01T05:46:38.968Z,13.00
2018-09-01T05:51:42.364Z,12.90
2018-09-01T05:56:45.830Z,12.90
2018-09-01T06:01:49.183Z,12.90
2018-09-01T06:06:52.550Z,12.90
2018-09-01T06:11:55.930Z,12.80
2018-09-01T06:16:59.297Z,12.80
2018-09-01T06:22:02.723Z,12.80
2018-09-01T06:27:11.212Z,12.90
2018-09-01T06:32:14.975Z,12.90
2018-09-01T06:37:18.430Z,13.00
2018-09-01T06:42:21.861Z,13.00
2018-09-01T06:47:29.651Z,13.20
2018-09-01T06:52:33.184Z,13.20
2018-09-01T06:57:36.690Z,13.30
2018-09-01T07:02:40.193Z,13.30
2018-09-01T07:07:43.520Z,13.40
2018-09-01T07:12:47.005Z,13.50
2018-09-01T07:17:50.340Z,13.50
2018-09-01T07:22:53.657Z,13.50
2018-09-01T07:27:57.399Z,13.50
2018-09-01T07:33:00.968Z,13.50
2018-09-01T07:38:04.549Z,13.40
2018-09-01T07:43:08.077Z,13.40
2018-09-01T07:48:11.407Z,13.40
2018-09-01T07:53:14.940Z,13.50
2018-09-01T08:03:21.509Z,13.70
2018-09-01T08:08:24.957Z,13.70
2018-09-01T08:13:28.382Z,13.70
2018-09-01T08:18:31.838Z,13.80
2018-09-01T08:23:35.282Z,13.90
2018-09-01T08:28:38.761Z,13.90
2018-09-01T08:33:42.196Z,14.00
2018-09-01T08:38:45.486Z,14.00
2018-09-01T08:43:48.930Z,14.00
2018-09-01T08:48:53.084Z,14.10
2018-09-01T08:59:00.247Z,14.10
2018-09-01T09:04:03.874Z,14.10
2018-09-01T09:09:07.756Z,14.20
2018-09-01T09:14:11.313Z,14.20
2018-09-01T09:19:15.012Z,14.20
2018-09-01T09:24:18.796Z,14.20
2018-09-01T09:29:22.372Z,14.20
2018-09-01T09:34:26.117Z,14.30
2018-09-01T09:39:29.961Z,14.30
2018-09-01T09:44:33.464Z,14.30
2018-09-01T09:49:36.875Z,14.40
2018-09-01T09:54:40.514Z,14.40
2018-09-01T09:59:44.163Z,14.40
2018-09-01T10:04:47.941Z,14.40
2018-09-01T10:09:51.597Z,14.40
2018-09-01T10:14:55.243Z,14.40
2018-09-01T10:19:58.891Z,14.50
2018-09-01T10:25:02.449Z,14.50
2018-09-01T10:30:06.325Z,14.50
2018-09-01T10:35:09.995Z,14.50
2018-09-01T10:40:13.600Z,14.50
2018-09-01T10:45:16.980Z,14.40
2018-09-01T10:50:20.433Z,14.40
2018-09-01T10:55:23.750Z,14.40
2018-09-01T11:00:27.285Z,14.40
2018-09-01T11:05:30.776Z,14.40
2018-09-01T11:10:34.152Z,14.50
2018-09-01T11:15:37.584Z,14.60
2018-09-01T11:20:40.997Z,14.60
2018-09-01T11:25:44.406Z,14.60
2018-09-01T11:30:47.914Z,14.70
2018-09-01T11:35:51.333Z,14.80
2018-09-01T11:40:54.707Z,14.90
2018-09-01T11:45:58.181Z,14.90
2018-09-01T11:51:01.701Z,14.90
2018-09-01T11:56:05.168Z,14.90
2018-09-01T12:01:08.540Z,14.90
2018-09-01T12:06:12.082Z,14.90
2018-09-01T12:11:15.535Z,14.90
2018-09-01T12:16:18.861Z,14.90
2018-09-01T12:21:22.265Z,14.90
2018-09-01T12:26:25.549Z,14.90
2018-09-01T12:31:28.869Z,15.00
2018-09-01T12:36:32.205Z,15.00
2018-09-01T12:41:35.540Z,15.00
2018-09-01T12:46:38.844Z,15.00
2018-09-01T12:51:42.850Z,15.10
2018-09-01T12:56:46.201Z,15.10
2018-09-01T13:01:49.515Z,15.00
2018-09-01T13:06:53.001Z,15.00
2018-09-01T13:11:56.510Z,15.10
2018-09-01T13:16:59.839Z,15.10
2018-09-01T13:22:03.392Z,15.00
2018-09-01T13:27:06.802Z,15.00
2018-09-01T13:32:10.328Z,15.10
2018-09-01T13:37:13.817Z,15.10
2018-09-01T13:42:17.123Z,15.10
2018-09-01T13:47:20.460Z,15.20
2018-09-01T13:52:23.785Z,15.20
2018-09-01T13:57:27.296Z,15.20
2018-09-01T14:02:30.634Z,15.10
2018-09-01T14:07:34.014Z,15.10
2018-09-01T14:12:37.921Z,15.10
2018-09-01T14:17:41.583Z,15.10
2018-09-01T14:22:44.902Z,15.10
2018-09-01T14:27:48.321Z,15.10
2018-09-01T14:32:51.661Z,15.10
2018-09-01T14:37:55.165Z,15.10
2018-09-01T14:42:58.566Z,15.10
2018-09-01T14:48:02.024Z,15.10
2018-09-01T14:53:05.517Z,15.20
2018-09-01T14:58:08.973Z,15.00
2018-09-01T15:03:12.335Z,15.00
2018-09-01T15:08:15.717Z,15.00
2018-09-01T15:13:19.046Z,14.90
2018-09-01T15:18:22.645Z,14.90
2018-09-01T15:23:26.441Z,14.90
2018-09-01T15:28:30.023Z,14.90
2018-09-01T15:33:33.505Z,14.60
2018-09-01T15:38:36.837Z,14.50
2018-09-01T15:43:40.145Z,14.50
2018-09-01T15:48:43.541Z,14.40
2018-09-01T15:53:46.883Z,14.40
2018-09-01T15:58:51.015Z,14.30
2018-09-01T16:03:54.407Z,14.40
2018-09-01T16:08:57.862Z,14.40
2018-09-01T16:14:01.185Z,14.20
2018-09-01T16:19:04.759Z,14.30
2018-09-01T16:24:08.089Z,14.30
2018-09-01T16:29:11.614Z,14.30
2018-09-01T16:34:14.940Z,14.30
2018-09-01T16:39:18.545Z,14.30
2018-09-01T16:44:21.910Z,14.30
2018-09-01T16:49:25.389Z,14.20
2018-09-01T16:54:28.966Z,14.30
2018-09-01T16:59:32.592Z,14.20
2018-09-01T17:04:36.009Z,14.20
2018-09-01T17:09:39.459Z,14.20
2018-09-01T17:14:42.837Z,14.20
2018-09-01T17:19:46.342Z,14.20
2018-09-01T17:24:49.802Z,14.10
2018-09-01T17:29:54.241Z,14.10
2018-09-01T17:34:57.778Z,14.10
2018-09-01T17:40:01.136Z,14.00
2018-09-01T17:45:04.597Z,14.00
2018-09-01T17:50:07.958Z,14.00
2018-09-01T17:55:11.337Z,14.00
2018-09-01T18:00:14.634Z,14.00
2018-09-01T18:05:17.974Z,14.10
2018-09-01T18:10:21.442Z,14.20
2018-09-01T18:15:24.761Z,14.10
2018-09-01T18:20:28.289Z,14.10
2018-09-01T18:25:31.833Z,14.10
2018-09-01T18:30:35.297Z,14.10
2018-09-01T18:35:38.646Z,14.10
2018-09-01T18:40:42.038Z,14.10
2018-09-01T18:45:45.444Z,14.10
2018-09-01T18:50:48.870Z,14.10
2018-09-01T18:55:52.265Z,14.00
2018-09-01T19:00:55.763Z,14.10
2018-09-01T19:05:59.148Z,14.10
2018-09-01T19:11:02.519Z,14.10
2018-09-01T19:16:05.964Z,14.20
2018-09-01T19:21:09.390Z,14.10
2018-09-01T19:26:13.237Z,14.10
2018-09-01T19:31:17.889Z,14.10
2018-09-01T19:36:22.006Z,14.10
2018-09-01T19:41:26.015Z,14.10
2018-09-01T19:46:29.729Z,14.20
2018-09-01T19:51:33.046Z,14.20
2018-09-01T19:56:36.494Z,14.20
2018-09-01T20:01:40.283Z,14.20
2018-09-01T20:06:43.809Z,14.30
2018-09-01T20:11:47.678Z,14.30
2018-09-01T20:21:56.252Z,14.30
2018-09-01T20:27:00.274Z,14.30
2018-09-01T20:32:04.033Z,14.30
2018-09-01T20:37:08.005Z,14.30
2018-09-01T20:42:11.598Z,14.30
2018-09-01T20:47:15.319Z,14.30
2018-09-01T20:52:19.393Z,14.30
2018-09-01T20:57:23.084Z,14.30
2018-09-01T21:02:26.965Z,14.40
2018-09-01T21:07:30.584Z,14.40
2018-09-01T21:12:34.207Z,14.40
2018-09-01T21:17:38.512Z,14.50
2018-09-01T21:22:42.369Z,14.50
2018-09-01T21:27:46.434Z,14.50
2018-09-01T21:32:50.558Z,14.40
2018-09-01T21:37:54.835Z,14.30
2018-09-01T21:42:58.676Z,14.20
2018-09-01T21:48:02.149Z,14.10
2018-09-01T21:53:05.712Z,14.10
2018-09-01T21:58:09.621Z,14.00
2018-09-01T22:03:13.739Z,14.00
2018-09-01T22:08:17.265Z,14.00
2018-09-01T22:13:20.646Z,14.00
2018-09-01T22:18:24.196Z,14.00
2018-09-01T22:23:27.589Z,13.80
2018-09-01T22:28:30.897Z,13.70
2018-09-01T22:33:34.229Z,13.70
2018-09-01T22:38:37.645Z,13.70
2018-09-01T22:43:40.980Z,13.70
2018-09-01T22:48:44.304Z,13.80
2018-09-01T22:53:47.956Z,13.70
2018-09-01T22:58:51.262Z,13.70
2018-09-01T23:03:54.684Z,13.80
2018-09-01T23:08:58.002Z,13.70
2018-09-01T23:14:01.474Z,13.70
2018-09-01T23:19:05.628Z,13.70
2018-09-01T23:24:08.944Z,13.70
2018-09-01T23:29:12.341Z,13.80
2018-09-01T23:34:15.684Z,13.80
2018-09-01T23:39:19.027Z,13.70
2018-09-01T23:44:22.391Z,13.80
2018-09-01T23:49:25.724Z,13.60
2018-09-01T23:54:29.082Z,13.60
2018-09-01T23:59:32.465Z,13.50
